Time;durP1;ratioP1;P1;durP2;ratioP2;P2;SDS_P1;SDS_P2;PMS_P1;PMS_P2;Temp;Humidity;BMP_temperature;BMP_pressure;BME280_temperature;BME280_humidity;BME280_pressure;Samples;Min_cycle;Max_cycle;Signal;HPM_P1;HPM_P2
2022/08/04 00:01:31;;;;;;;7.10;6.57;;;;;;;23.76;79.54;99423.78;5116150;28;20297;-67
2022/08/04 00:04:02;;;;;;;7.10;6.70;;;;;;;23.73;79.07;99426.66;5115942;28;20218;-67
2022/08/04 00:06:53;;;;;;;8.13;7.20;;;;;;;23.71;79.25;99434.66;5116051;28;20321;-67
2022/08/04 00:09:30;;;;;;;7.50;6.77;;;;;;;23.62;79.31;99430.16;5108304;28;20211;-68
2022/08/04 00:12:01;;;;;;;6.87;6.50;;;;;;;23.60;78.99;99437.31;5115716;28;20186;-67
2022/08/04 00:14:34;;;;;;;6.93;6.53;;;;;;;23.47;79.24;99441.91;5115852;28;20195;-67
2022/08/04 00:17:05;;;;;;;7.20;6.70;;;;;;;23.38;79.69;99442.63;5115993;28;20207;-67
2022/08/04 00:19:38;;;;;;;7.57;6.97;;;;;;;23.27;79.69;99440.03;5115839;28;20610;-67
2022/08/04 00:22:09;;;;;;;6.80;6.40;;;;;;;23.16;80.02;99424.41;5115772;28;20225;-67
2022/08/04 00:24:37;;;;;;;7.57;6.40;;;;;;;23.14;79.85;99442.00;5115636;28;20578;-67
2022/08/04 00:27:04;;;;;;;7.87;7.13;;;;;;;23.07;80.05;99443.47;5115600;28;20582;-67
2022/08/04 00:29:32;;;;;;;6.70;6.17;;;;;;;22.96;80.76;99436.50;5115714;28;20206;-67
2022/08/04 00:32:01;;;;;;;6.87;6.57;;;;;;;22.74;81.02;99429.53;5115343;28;20202;-67
2022/08/04 00:34:31;;;;;;;7.10;6.70;;;;;;;22.82;80.82;99442.81;5115403;28;20187;-67
2022/08/04 00:36:58;;;;;;;7.47;7.07;;;;;;;22.90;80.22;99442.22;5115513;28;20662;-66
2022/08/04 00:39:28;;;;;;;8.03;7.47;;;;;;;22.81;80.56;99435.91;5115451;28;20218;-67
2022/08/04 00:42:21;;;;;;;7.03;6.73;;;;;;;22.78;80.12;99437.97;5115344;28;20199;-67
2022/08/04 00:45:08;;;;;;;6.80;6.17;;;;;;;22.77;79.99;99439.75;5112704;28;20217;-67
2022/08/04 00:47:44;;;;;;;6.97;6.27;;;;;;;22.57;79.77;99435.22;5133891;27;20247;-67
2022/08/04 00:50:17;;;;;;;7.47;7.07;;;;;;;22.66;80.02;99450.22;5109399;28;20215;-67
2022/08/04 00:53:00;;;;;;;7.33;6.93;;;;;;;22.66;79.87;99450.22;5114828;28;20202;-67
2022/08/04 00:56:01;;;;;;;7.33;6.90;;;;;;;22.68;80.14;99445.69;5115029;28;20206;-67
2022/08/04 00:58:35;;;;;;;6.37;6.07;;;;;;;22.70;80.58;99446.41;5114763;28;20205;-67
2022/08/04 01:01:04;;;;;;;7.03;6.43;;;;;;;22.71;80.66;99445.47;5114847;28;20208;-67
2022/08/04 01:03:49;;;;;;;7.20;6.70;;;;;;;22.69;79.80;99443.91;5114817;28;20218;-67
2022/08/04 01:06:29;;;;;;;7.23;6.30;;;;;;;22.48;80.22;99451.63;5113237;28;20693;-67
2022/08/04 01:09:08;;;;;;;6.50;6.10;;;;;;;22.23;81.62;99446.66;5114279;28;20258;-67
2022/08/04 01:11:55;;;;;;;7.33;6.63;;;;;;;22.32;80.77;99440.72;5111166;28;20689;-67
2022/08/04 01:14:44;;;;;;;6.60;6.10;;;;;;;22.38;80.45;99441.06;5114635;28;20585;-67
2022/08/04 01:17:20;;;;;;;6.57;6.27;;;;;;;22.38;80.71;99430.63;5114254;28;20202;-66
2022/08/04 01:19:55;;;;;;;6.73;6.30;;;;;;;22.49;80.93;99442.81;5114410;28;20194;-67
2022/08/04 01:22:59;;;;;;;6.43;6.00;;;;;;;22.54;80.79;99451.16;5114531;28;20198;-67
2022/08/04 01:25:58;;;;;;;6.77;6.37;;;;;;;22.49;81.10;99448.03;5114258;27;20232;-67
2022/08/04 01:28:42;;;;;;;6.47;6.17;;;;;;;22.38;81.27;99450.69;5113195;28;20199;-67
2022/08/04 01:31:20;;;;;;;7.27;6.60;;;;;;;22.29;81.76;99457.47;5106461;28;20202;-66
2022/08/04 01:33:49;;;;;;;6.87;6.57;;;;;;;22.30;82.07;99458.25;5114396;28;20227;-67
2022/08/04 01:36:16;;;;;;;10.20;6.47;;;;;;;22.29;82.54;99460.06;5114113;28;20220;-67
2022/08/04 01:38:44;;;;;;;6.67;6.37;;;;;;;22.33;82.20;99458.03;5114155;28;20693;-67
2022/08/04 01:41:14;;;;;;;7.37;6.83;;;;;;;22.34;81.95;99459.69;5114225;28;20202;-67
2022/08/04 01:43:43;;;;;;;6.27;5.90;;;;;;;22.35;81.42;99450.94;5114571;28;20680;-67
2022/08/04 01:46:13;;;;;;;7.60;7.00;;;;;;;22.33;81.51;99452.81;5093704;28;20298;-67
2022/08/04 01:48:42;;;;;;;7.70;7.10;;;;;;;22.33;81.46;99447.56;5097496;28;20206;-67
2022/08/04 01:51:09;;;;;;;7.67;7.17;;;;;;;22.30;81.86;99447.81;5113865;28;20195;-67
2022/08/04 01:53:38;;;;;;;6.70;6.40;;;;;;;22.28;81.71;99452.34;5113953;28;20207;-67
2022/08/04 01:56:07;;;;;;;7.47;6.97;;;;;;;22.28;81.63;99449.72;5113614;28;20203;-67
2022/08/04 01:58:36;;;;;;;7.17;6.50;;;;;;;22.22;81.60;99434.53;5113711;28;20183;-67
2022/08/04 02:01:04;;;;;;;7.13;6.73;;;;;;;22.30;81.18;99445.22;5113537;28;20191;-67
2022/08/04 02:03:34;;;;;;;7.17;6.77;;;;;;;22.30;81.09;99442.59;5113391;28;20199;-67
2022/08/04 02:06:16;;;;;;;6.87;6.47;;;;;;;22.28;81.38;99447.13;5113559;28;20230;-68
2022/08/04 02:08:51;;;;;;;7.43;6.73;;;;;;;22.26;81.26;99451.63;5113406;28;20674;-67
2022/08/04 02:11:21;;;;;;;7.03;6.63;;;;;;;22.23;81.52;99447.47;5113431;28;20202;-67
2022/08/04 02:13:57;;;;;;;7.93;6.93;;;;;;;22.22;81.79;99460.66;5113455;28;20198;-67
2022/08/04 02:16:32;;;;;;;7.90;7.47;;;;;;;22.18;82.54;99460.06;5113325;28;20198;-67
2022/08/04 02:19:10;;;;;;;7.57;7.07;;;;;;;22.13;83.65;99456.16;5106416;28;20194;-67
2022/08/04 02:21:51;;;;;;;7.30;6.80;;;;;;;22.00;83.67;99444.97;5113031;28;20199;-67
2022/08/04 02:24:26;;;;;;;7.57;6.80;;;;;;;22.11;83.70;99474.53;5113199;28;20743;-67
2022/08/04 02:26:56;;;;;;;7.30;6.70;;;;;;;22.11;83.93;99476.28;5113338;28;20205;-67
2022/08/04 02:29:34;;;;;;;7.83;7.43;;;;;;;22.01;84.69;99472.72;5112952;28;20205;-68
2022/08/04 02:32:05;;;;;;;8.10;7.40;;;;;;;21.95;84.80;99464.41;5112855;28;20202;-67
2022/08/04 02:34:40;;;;;;;7.90;7.37;;;;;;;21.92;85.64;99464.66;5113222;28;20703;-68
2022/08/04 02:37:10;;;;;;;7.83;7.37;;;;;;;21.88;85.94;99467.56;5112949;28;20641;-66
2022/08/04 02:39:37;;;;;;;7.73;7.33;;;;;;;21.88;85.54;99463.19;5113042;28;20587;-67
2022/08/04 02:42:05;;;;;;;8.20;6.90;;;;;;;21.88;85.65;99465.78;5113286;27;20040;-67
2022/08/04 02:44:32;;;;;;;;;;;;;;;21.88;85.60;99460.56;5113306;28;20161;-67
2022/08/04 02:47:00;;;;;;;;;;;;;;;21.89;85.77;99459.66;5113228;28;19926;-67
2022/08/04 02:49:29;;;;;;;;;;;;;;;21.86;86.22;99459.88;5113001;28;19920;-66
2022/08/04 02:51:57;;;;;;;;;;;;;;;21.83;87.00;99454.88;5113207;28;20371;-67
2022/08/04 02:54:25;;;;;;;;;;;;;;;21.83;87.11;99457.50;5113011;28;19927;-66
2022/08/04 02:56:53;;;;;;;;;;;;;;;21.81;87.71;99454.16;5113223;28;19924;-67
2022/08/04 02:59:20;;;;;;;;;;;;;;;21.80;87.74;99460.34;5112994;28;19969;-67
2022/08/04 03:01:47;;;;;;;;;;;;;;;21.81;87.76;99455.94;5113038;28;20307;-66
2022/08/04 03:04:25;;;;;;;;;;;;;;;21.82;88.04;99462.81;5112630;28;20399;-67
2022/08/04 03:07:10;;;;;;;;;;;;;;;21.84;88.24;99463.53;5112698;28;19923;-67
2022/08/04 03:09:52;;;;;;;;;;;;;;;21.86;88.40;99470.31;5112623;28;19919;-66
2022/08/04 03:12:33;;;;;;;;;;;;;;;21.83;88.61;99470.53;5112823;28;19919;-65
2022/08/04 03:15:27;;;;;;;;;;;;;;;21.80;88.98;99473.38;5113016;28;19927;-66
2022/08/04 03:18:14;;;;;;;;;;;;;;;21.79;88.96;99466.50;5111532;28;19919;-66
2022/08/04 03:20:56;;;;;;;;;;;;;;;21.76;88.92;99466.72;5103421;28;19927;-67
2022/08/04 03:23:29;;;;;;;;;;;;;;;21.73;89.17;99469.56;5112530;28;19930;-66
2022/08/04 03:26:19;;;;;;;;;;;;;;;21.71;89.31;99470.63;5112413;28;19963;-67
2022/08/04 03:29:16;;;;;;;7.20;6.70;;;;;;;21.67;89.62;99475.25;5112253;28;19927;-67
2022/08/04 03:31:51;;;;;;;;;;;;;;;21.62;90.18;99469.53;5112464;28;20102;-66
2022/08/04 03:34:35;;;;;;;;;;;;;;;21.65;90.43;99471.91;5111782;28;19920;-66
2022/08/04 03:37:16;;;;;;;;;;;;;;;21.66;89.87;99463.13;5112498;28;19931;-67
2022/08/04 03:40:06;;;;;;;;;;;;;;;21.64;89.37;99464.19;5112328;28;19920;-66
2022/08/04 03:42:58;;;;;;;;;;;;;;;21.59;89.56;99461.91;5112446;28;19931;-66
2022/08/04 03:45:39;;;;;;;;;;;;;;;21.60;89.84;99473.19;5111554;28;19920;-67
2022/08/04 03:48:23;;;;;;;;;;;;;;;21.65;89.97;99474.50;5097646;28;20375;-67
2022/08/04 03:54:10;;;;;;;;;;;;;;;21.82;89.49;99470.63;5112561;28;20413;-67
2022/08/04 03:56:51;;;;;;;;;;;;;;;21.93;88.53;99466.31;5112141;28;19920;-66
2022/08/04 03:59:33;;;;;;;;;;;;;;;21.98;88.09;99471.19;5110572;28;19927;-67
2022/08/04 04:02:10;;;;;;;;;;;;;;;22.08;87.96;99474.75;5112591;28;20504;-66
2022/08/04 04:04:57;;;;;;;;;;;;;;;22.18;87.85;99474.88;5112138;28;19985;-67
2022/08/04 04:07:39;;;;;;;;;;;;;;;22.25;88.35;99476.09;5107237;28;19919;-66
2022/08/04 04:10:21;;;;;;;;;;;;;;;22.27;88.28;99471.56;5104393;28;19919;-66
2022/08/04 04:13:00;;;;;;;;;;;;;;;22.37;86.96;99475.13;5100586;28;20371;-66
2022/08/04 04:15:36;;;;;;;;;;;;;;;22.42;86.74;99473.00;5092895;28;19920;-66
2022/08/04 04:18:32;;;;;;;;;;;;;;;22.47;86.15;99473.47;5112047;28;20397;-66
2022/08/04 04:21:12;;;;;;;;;;;;;;;22.55;86.35;99468.50;5112170;28;19987;-66
2022/08/04 04:23:57;;;;;;;;;;;;;;;22.61;86.64;99478.47;5112111;28;19972;-67
2022/08/04 04:26:35;;;;;;;;;;;;;;;22.71;85.81;99483.84;5112044;28;19980;-66
2022/08/04 04:29:17;;;;;;;;;;;;;;;22.73;84.43;99487.97;5111914;28;19980;-66
2022/08/04 04:31:53;;;;;;;;;;;;;;;22.86;84.08;99491.28;5112196;28;19971;-66
2022/08/04 04:34:31;;;;;;;;;;;;;;;23.06;82.84;99483.66;5112006;28;20067;-66
2022/08/04 04:37:07;;;;;;;;;;;;;;;23.24;82.33;99484.78;5096047;28;20439;-66
2022/08/04 04:39:42;;;;;;;;;;;;;;;23.44;81.84;99489.25;5112191;28;19985;-66
2022/08/04 04:42:18;;;;;;;;;;;;;;;23.58;81.36;99491.59;5112624;28;19980;-66
2022/08/04 04:45:10;;;;;;;;;;;;;;;23.71;81.26;99483.53;5113570;28;20025;-66
2022/08/04 04:47:41;;;;;;;;;;;;;;;23.88;81.14;99493.44;5115493;28;19972;-66
2022/08/04 04:50:11;;;;;;;;;;;;;;;23.98;79.82;99489.91;5115401;28;20025;-66
2022/08/04 04:52:40;;;;;;;;;;;;;;;24.07;78.02;99495.34;5115537;28;19976;-66
2022/08/04 04:55:10;;;;;;;;;;;;;;;24.02;77.63;99486.09;5115445;28;20336;-66
2022/08/04 04:57:37;;;;;;;;;;;;;;;24.04;77.48;99489.41;5115556;28;19971;-66
2022/08/04 05:00:06;;;;;;;;;;;;;;;24.05;78.38;99488.44;5115149;28;20071;-66
2022/08/04 05:02:47;;;;;;;;;;;;;;;24.10;77.96;99495.09;5115541;28;20469;-66
2022/08/04 05:05:21;;;;;;;;;;;;;;;24.13;77.77;99492.25;5112510;28;19976;-66
2022/08/04 05:08:20;;;;;;;;;;;;;;;23.87;77.25;99492.63;5115162;28;20455;-66
2022/08/04 05:10:57;;;;;;;;;;;;;;;23.79;77.97;99496.81;5115379;28;19980;-66
2022/08/04 05:13:35;;;;;;;;;;;;;;;23.78;77.68;99501.22;5114979;28;20021;-66
2022/08/04 05:16:17;;;;;;;;;;;;;;;23.75;78.24;99498.84;5114390;28;20387;-65
2022/08/04 05:18:46;;;;;;;;;;;;;;;23.76;79.07;99500.53;5114260;28;19979;-66
2022/08/04 05:21:19;;;;;;;;;;;;;;;23.77;79.49;99502.19;5114828;28;19995;-66
2022/08/04 05:23:49;;;;;;;;;;;;;;;23.80;78.78;99501.94;5114907;28;19976;-66
2022/08/04 05:26:18;;;;;;;;;;;;;;;23.85;79.34;99502.38;5114716;28;19999;-66
2022/08/04 05:28:48;;;;;;;;;;;;;;;23.91;79.66;99509.72;5114917;28;20480;-66
2022/08/04 05:31:18;;;;;;;;;;;;;;;24.04;80.18;99509.53;5114865;28;20056;-66
2022/08/04 05:33:47;;;;;;;;;;;;;;;24.26;80.08;99516.47;5114864;28;19979;-66
2022/08/04 05:36:16;;;;;;;;;;;;;;;24.56;77.64;99505.97;5114484;28;19981;-66
2022/08/04 05:38:44;;;;;;;;;;;;;;;24.88;73.61;99511.91;5114369;27;20010;-66
2022/08/04 05:41:11;;;;;;;;;;;;;;;25.21;75.46;99513.34;5114677;28;20010;-67
2022/08/04 05:43:43;;;;;;;;;;;;;;;25.50;72.05;99518.66;5114643;28;20006;-66
2022/08/04 05:46:11;;;;;;;;;;;;;;;25.75;70.77;99519.91;5114493;28;20492;-66
2022/08/04 05:48:38;;;;;;;;;;;;;;;26.04;70.61;99518.88;5114247;28;20058;-66
2022/08/04 05:51:05;;;;;;;;;;;;;;;26.30;69.20;99513.88;5114484;28;19976;-66
2022/08/04 05:53:32;;;;;;;;;;;;;;;26.58;69.29;99512.13;5114458;28;20000;-66
2022/08/04 05:56:01;;;;;;;;;;;;;;;26.88;69.26;99514.47;5113488;28;19998;-66
2022/08/04 05:58:29;;;;;;;;;;;;;;;27.19;67.43;99511.53;5114258;28;19920;-66
2022/08/04 06:00:57;;;;;;;;;;;;;;;27.48;65.44;99510.38;5114187;28;19919;-66
2022/08/04 06:03:25;;;;;;;;;;;;;;;27.70;64.85;99519.63;5114072;28;19926;-67
2022/08/04 06:05:52;;;;;;;;;;;;;;;27.92;60.59;99505.97;5113788;28;19920;-66
2022/08/04 06:08:19;;;;;;;;;;;;;;;28.14;61.41;99509.94;5114218;28;19942;-66
2022/08/04 06:10:47;;;;;;;;;;;;;;;28.36;60.08;99513.88;5114046;28;19949;-66
2022/08/04 06:13:17;;;;;;;;;;;;;;;28.42;56.72;99503.53;5114187;28;19923;-66
2022/08/04 06:15:44;;;;;;;;;;;;;;;28.59;57.92;99509.69;5113866;28;19924;-66
2022/08/04 06:18:13;;;;;;;;;;;;;;;28.66;58.62;99505.44;5114116;28;19927;-66
2022/08/04 06:20:42;;;;;;;;;;;;;;;28.96;56.44;99504.91;5113732;28;19920;-67
2022/08/04 06:23:10;;;;;;;;;;;;;;;29.10;58.37;99504.31;5114002;28;20284;-66
2022/08/04 06:25:39;;;;;;;;;;;;;;;28.92;56.79;99506.22;5115411;27;19942;-71
2022/08/04 06:28:06;;;;;;;;;;;;;;;29.10;56.93;99506.94;5113293;27;19976;-76
2022/08/04 06:30:34;;;;;;;;;;;;;;;29.31;58.43;99503.88;5112671;28;20302;-74
2022/08/04 06:33:12;;;;;;;;;;;;;;;29.39;57.16;99493.31;5112850;28;19920;-74
2022/08/04 06:35:40;;;;;;;;;;;;;;;29.68;56.53;99492.84;5113791;27;20011;-73
2022/08/04 06:38:08;;;;;;;;;;;;;;;29.88;56.74;99502.13;5114090;27;19919;-73
2022/08/04 06:40:35;;;;;;;;;;;;;;;29.95;57.51;99505.72;5113061;27;19919;-73
2022/08/04 06:43:02;;;;;;;;;;;;;;;30.04;55.35;99504.75;5113900;27;20006;-70
2022/08/04 06:45:29;;;;;;;;;;;;;;;30.05;50.74;99506.38;5109059;28;19920;-67
2022/08/04 06:47:56;;;;;;;;;;;;;;;30.06;53.91;99504.56;5110153;28;20018;-70
2022/08/04 06:50:23;;;;;;;;;;;;;;;30.29;51.73;99507.31;5112310;28;19924;-70
2022/08/04 06:52:51;;;;;;;;;;;;;;;30.51;52.48;99496.84;5112143;28;19926;-68
2022/08/04 06:55:17;;;;;;;;;;;;;;;30.53;52.29;99504.66;5111606;28;19926;-70
2022/08/04 06:57:45;;;;;;;;;;;;;;;30.72;51.54;99496.28;5108296;27;19934;-70
2022/08/04 07:00:13;;;;;;;;;;;;;;;30.89;50.02;99495.19;5110604;28;20013;-69
2022/08/04 07:02:42;;;;;;;;;;;;;;;31.14;49.90;99494.13;5110458;28;19930;-69
2022/08/04 07:05:10;;;;;;;;;;;;;;;31.28;48.08;99494.34;5110145;27;19963;-71
2022/08/04 07:07:37;;;;;;;;;;;;;;;31.51;47.20;99498.66;5108219;28;19920;-70
2022/08/04 07:10:07;;;;;;;2.63;2.53;;;;;;;31.73;49.21;99499.63;5109952;28;20204;-70
2022/08/04 07:12:34;;;;;;;2.90;2.80;;;;;;;31.96;46.14;99510.22;5109536;28;20199;-69
2022/08/04 07:15:01;;;;;;;3.05;2.85;;;;;;;32.15;47.03;99505.25;5106529;28;20652;-70
2022/08/04 07:17:30;;;;;;;2.47;2.38;;;;;;;32.34;47.00;99503.06;5108122;28;20209;-70
2022/08/04 07:19:57;;;;;;;2.80;2.70;;;;;;;32.40;47.41;99502.34;5108913;27;20739;-69
2022/08/04 07:22:25;;;;;;;3.00;2.67;;;;;;;32.41;48.96;99504.00;5109014;27;20666;-69
2022/08/04 07:24:55;;;;;;;2.72;2.63;;;;;;;32.50;45.77;99508.19;5110264;28;20237;-69
2022/08/04 07:27:24;;;;;;;2.67;2.58;;;;;;;32.69;48.37;99503.19;5110075;28;20267;-71
2022/08/04 07:29:51;;;;;;;3.25;3.05;;;;;;;32.90;47.89;99505.03;5110149;28;20247;-68
2022/08/04 07:32:20;;;;;;;2.95;2.85;;;;;;;33.08;43.77;99502.81;5109852;28;20206;-71
2022/08/04 07:34:49;;;;;;;2.90;2.80;;;;;;;33.18;42.11;99506.00;5110316;28;20203;-71
2022/08/04 07:37:16;;;;;;;2.67;2.58;;;;;;;33.41;43.78;99507.69;5108128;28;20199;-70
2022/08/04 07:39:43;;;;;;;2.97;2.88;;;;;;;33.47;44.94;99504.25;5109903;28;20640;-71
2022/08/04 07:42:11;;;;;;;6.97;2.92;;;;;;;33.51;41.64;99497.53;5109697;28;20206;-69
2022/08/04 07:44:39;;;;;;;2.90;2.80;;;;;;;33.21;42.63;99487.06;5107217;28;20210;-70
2022/08/04 07:47:07;;;;;;;3.10;3.00;;;;;;;33.45;41.78;99499.13;5109841;28;20223;-71
2022/08/04 07:49:35;;;;;;;2.63;2.53;;;;;;;33.39;42.53;99489.25;5109829;28;20202;-71
2022/08/04 07:52:02;;;;;;;2.80;2.70;;;;;;;33.63;43.84;99498.72;5109715;28;20199;-71
2022/08/04 07:54:29;;;;;;;2.95;2.85;;;;;;;33.78;41.49;99502.94;5109950;28;20203;-72
2022/08/04 07:56:57;;;;;;;2.88;2.78;;;;;;;33.90;41.24;99508.53;5103387;28;20198;-70
2022/08/04 07:59:24;;;;;;;2.53;2.43;;;;;;;34.04;41.91;99494.31;5109550;28;20199;-71
2022/08/04 08:01:53;;;;;;;3.30;3.20;;;;;;;34.01;45.35;99494.72;5109053;28;20286;-71
2022/08/04 08:04:22;;;;;;;3.20;2.85;;;;;;;34.12;40.97;99494.19;5107736;28;20245;-70
2022/08/04 08:06:51;;;;;;;2.60;2.50;;;;;;;34.24;40.51;99490.00;5109141;28;20686;-71
2022/08/04 08:09:20;;;;;;;3.22;3.10;;;;;;;34.26;40.77;99484.44;5109870;28;20203;-70
2022/08/04 08:11:50;;;;;;;2.92;2.83;;;;;;;34.22;40.80;99484.03;5108358;28;20277;-71
2022/08/04 08:14:18;;;;;;;3.22;3.13;;;;;;;34.36;41.77;99486.75;5106983;28;20321;-71
2022/08/04 08:16:45;;;;;;;3.03;2.92;;;;;;;34.44;39.84;99489.28;5107591;28;20199;-71
2022/08/04 08:19:16;;;;;;;2.80;2.70;;;;;;;34.51;40.76;99484.81;5109660;28;20211;-70
2022/08/04 08:21:48;;;;;;;2.95;2.85;;;;;;;34.53;40.45;99494.22;5114000;28;20199;-71
2022/08/04 08:24:16;;;;;;;2.85;2.75;;;;;;;34.71;38.93;99491.06;5114358;28;20207;-71
2022/08/04 08:26:44;;;;;;;2.95;2.80;;;;;;;34.75;39.56;99481.66;5114311;28;20217;-70
2022/08/04 08:29:13;;;;;;;2.78;2.67;;;;;;;34.78;36.76;99465.28;5114203;28;20674;-72
2022/08/04 08:31:42;;;;;;;3.10;3.00;;;;;;;34.96;40.41;99484.16;5113587;28;20230;-71
2022/08/04 08:34:11;;;;;;;2.92;2.83;;;;;;;35.04;38.93;99480.50;5114278;28;20217;-71
2022/08/04 08:36:45;;;;;;;3.40;3.20;;;;;;;35.12;41.64;99483.03;5114400;28;20285;-71
2022/08/04 08:39:17;;;;;;;3.15;2.92;;;;;;;35.18;40.73;99477.72;5113260;28;20647;-71
2022/08/04 08:42:38;;;;;;;2.67;2.58;;;;;;;34.92;40.55;99482.13;5114543;28;20206;-71
2022/08/04 08:45:32;;;;;;;2.50;2.40;;;;;;;34.86;39.85;99477.59;5096494;28;20195;-71
2022/08/04 08:48:50;;;;;;;2.67;2.22;;;;;;;34.75;35.14;99479.81;5113438;28;20233;-71
2022/08/04 08:51:46;;;;;;;3.10;2.65;;;;;;;34.58;36.99;99482.97;5071868;28;20299;-71
2022/08/04 08:54:40;;;;;;;1.70;1.70;;;;;;;34.45;35.21;99480.25;5105348;28;20570;-71
2022/08/04 08:57:30;;;;;;;2.20;2.10;;;;;;;34.54;37.44;99479.88;5111005;28;20199;-72
2022/08/04 09:00:07;;;;;;;2.47;2.30;;;;;;;34.81;38.38;99467.53;5109423;28;20667;-72
2022/08/04 09:03:07;;;;;;;2.42;2.33;;;;;;;35.01;35.72;99470.25;5112526;28;20639;-71
2022/08/04 09:06:13;;;;;;;2.40;2.00;;;;;;;35.15;34.72;99469.31;5076937;28;20621;-71
2022/08/04 09:08:56;;;;;;;1.95;1.90;;;;;;;34.71;34.32;99459.09;5049639;28;20746;-69
2022/08/04 09:11:27;;;;;;;2.33;2.22;;;;;;;34.86;34.29;99457.13;5106193;27;20202;-69
2022/08/04 09:13:57;;;;;;;2.38;2.28;;;;;;;35.11;35.47;99455.56;5112653;28;20251;-70
2022/08/04 09:16:31;;;;;;;2.28;2.17;;;;;;;35.20;36.24;99441.00;5112253;28;20678;-70
2022/08/04 09:19:06;;;;;;;2.22;2.13;;;;;;;35.42;36.21;99452.28;5112048;28;20197;-70
2022/08/04 09:21:39;;;;;;;3.58;3.40;;;;;;;35.23;35.48;99448.59;5109286;28;20204;-69
2022/08/04 09:24:16;;;;;;;2.35;2.25;;;;;;;34.70;34.53;99447.59;5111770;28;20241;-70
2022/08/04 09:26:50;;;;;;;3.15;2.95;;;;;;;34.86;34.90;99446.44;5110696;27;20320;-71
2022/08/04 09:29:21;;;;;;;2.53;2.42;;;;;;;34.68;34.87;99449.66;5105760;27;20194;-71
2022/08/04 09:31:59;;;;;;;2.80;2.60;;;;;;;34.70;34.70;99446.81;5099892;27;20233;-71
2022/08/04 09:34:39;;;;;;;2.20;2.10;;;;;;;35.09;37.19;99441.56;5109329;28;20211;-71
2022/08/04 09:37:15;;;;;;;3.08;2.80;;;;;;;35.01;35.06;99439.09;5110165;28;20658;-71
2022/08/04 09:39:56;;;;;;;4.20;4.00;;;;;;;35.23;34.95;99437.94;5110065;28;20677;-71
2022/08/04 09:42:35;;;;;;;2.45;2.35;;;;;;;35.42;34.91;99435.47;5108677;28;20295;-71
2022/08/04 09:45:11;;;;;;;2.10;2.00;;;;;;;35.33;33.54;99434.03;5110986;28;20628;-71
2022/08/04 09:47:46;;;;;;;2.13;2.03;;;;;;;35.24;34.24;99434.25;5106062;28;20590;-71
2022/08/04 09:50:26;;;;;;;1.90;1.88;;;;;;;35.29;31.93;99431.78;5111081;27;20242;-68
2022/08/04 09:53:02;;;;;;;1.92;1.90;;;;;;;35.54;36.71;99434.69;5108332;28;20206;-70
2022/08/04 09:55:48;;;;;;;2.00;1.90;;;;;;;35.94;32.85;99434.63;5101629;28;20690;-71
2022/08/04 09:58:24;;;;;;;2.45;2.35;;;;;;;35.95;30.54;99425.59;5110241;28;20735;-72
2022/08/04 10:00:57;;;;;;;3.88;3.67;;;;;;;35.79;31.26;99434.88;5111878;28;20202;-71
2022/08/04 10:03:30;;;;;;;2.25;2.15;;;;;;;35.62;31.15;99433.66;5106125;27;20738;-72
2022/08/04 10:06:10;;;;;;;2.80;2.63;;;;;;;35.90;31.96;99425.44;5111805;27;20734;-70
2022/08/04 10:09:00;;;;;;;1.77;1.77;;;;;;;35.80;30.47;99428.53;5107600;27;20199;-74
2022/08/04 10:11:50;;;;;;;1.92;1.83;;;;;;;35.61;30.50;99424.00;5110972;28;20291;-73
2022/08/04 10:14:37;;;;;;;3.28;2.97;;;;;;;35.55;29.44;99424.81;5108438;28;20651;-72
2022/08/04 10:17:15;;;;;;;2.60;2.50;;;;;;;35.33;28.30;99410.88;5107181;27;20195;-72
2022/08/04 10:19:42;;;;;;;2.40;2.30;;;;;;;35.30;28.91;99409.44;5106953;28;20198;-73
2022/08/04 10:22:15;;;;;;;2.13;2.03;;;;;;;35.51;29.42;99407.59;5111270;28;20206;-72
2022/08/04 10:24:53;;;;;;;1.77;1.67;;;;;;;35.60;30.05;99395.72;5111084;28;20198;-70
2022/08/04 10:27:28;;;;;;;1.85;1.60;;;;;;;35.23;29.42;99400.63;5109066;28;20214;-71
2022/08/04 10:29:58;;;;;;;6.00;1.67;;;;;;;35.27;29.55;99401.03;5110509;27;20685;-71
2022/08/04 10:32:34;;;;;;;6.47;1.90;;;;;;;35.42;30.53;99398.13;5110797;28;20289;-72
2022/08/04 10:35:08;;;;;;;1.98;1.88;;;;;;;35.58;30.77;99379.03;5109050;28;20589;-72
2022/08/04 10:37:42;;;;;;;1.75;1.65;;;;;;;35.75;30.27;99391.78;5107685;28;20202;-70
2022/08/04 10:43:12;;;;;;;1.60;1.60;;;;;;;36.04;29.61;99387.81;5108308;28;20255;-74
2022/08/04 10:45:44;;;;;;;1.83;1.73;;;;;;;36.09;29.46;99390.69;5110737;28;20199;-71
2022/08/04 10:48:20;;;;;;;1.83;1.73;;;;;;;36.06;28.69;99391.09;5107759;27;20307;-71
2022/08/04 10:51:02;;;;;;;2.03;2.03;;;;;;;36.06;29.65;99396.44;5111730;28;20198;-70
2022/08/04 10:53:32;;;;;;;2.20;2.10;;;;;;;36.12;30.05;99384.97;5111890;28;20230;-71
2022/08/04 10:56:04;;;;;;;2.00;1.75;;;;;;;35.91;31.16;99377.16;5111749;28;20590;-71
2022/08/04 10:58:41;;;;;;;1.80;1.60;;;;;;;36.04;29.86;99382.47;5111294;28;20579;-72
2022/08/04 11:01:16;;;;;;;1.67;1.55;;;;;;;36.37;30.60;99378.88;5111826;28;20210;-72
2022/08/04 11:03:51;;;;;;;2.30;2.20;;;;;;;36.44;28.94;99379.69;5112009;28;20213;-72
2022/08/04 11:06:20;;;;;;;2.17;1.80;;;;;;;36.42;29.70;99377.22;5110494;28;20230;-73
2022/08/04 11:08:51;;;;;;;1.75;1.75;;;;;;;36.46;31.52;99369.59;5112449;28;20238;-72
2022/08/04 11:11:26;;;;;;;4.00;2.20;;;;;;;36.62;30.07;99369.13;5112592;28;20726;-73
2022/08/04 11:14:02;;;;;;;3.75;1.83;;;;;;;36.62;29.59;99366.44;5108771;28;20198;-71
2022/08/04 11:16:39;;;;;;;2.40;1.80;;;;;;;36.63;29.34;99360.91;5108143;28;20665;-72
2022/08/04 11:19:20;;;;;;;2.60;1.98;;;;;;;36.76;28.00;99354.66;5112416;28;20285;-72
2022/08/04 11:21:55;;;;;;;1.63;1.63;;;;;;;36.92;30.09;99354.13;5112682;28;20202;-73
2022/08/04 11:24:30;;;;;;;1.90;1.88;;;;;;;36.94;28.41;99346.72;5110424;28;20327;-72
2022/08/04 11:27:02;;;;;;;2.10;2.00;;;;;;;36.93;29.07;99349.63;5111970;28;20218;-72
2022/08/04 11:29:41;;;;;;;1.70;1.70;;;;;;;36.56;28.94;99338.75;5111835;28;20205;-73
2022/08/04 11:32:14;;;;;;;2.15;2.00;;;;;;;36.43;28.43;99348.66;5114149;28;20620;-71
2022/08/04 11:34:48;;;;;;;1.73;1.73;;;;;;;36.06;27.98;99343.06;5109122;28;20235;-71
2022/08/04 11:37:21;;;;;;;1.48;1.38;;;;;;;35.74;28.10;99339.44;5110491;28;20206;-71
2022/08/04 11:39:51;;;;;;;1.60;1.60;;;;;;;35.95;30.66;99334.88;5107470;28;20297;-71
2022/08/04 11:42:22;;;;;;;2.25;2.05;;;;;;;36.14;29.83;99334.84;5107186;28;20325;-71
2022/08/04 11:44:54;;;;;;;2.08;1.98;;;;;;;36.29;30.08;99327.34;5107470;28;20293;-71
2022/08/04 11:47:30;;;;;;;5.07;2.10;;;;;;;35.93;30.04;99327.06;5112078;28;20222;-70
2022/08/04 11:50:03;;;;;;;1.63;1.63;;;;;;;35.67;28.19;99333.31;5106617;28;20575;-70
2022/08/04 11:52:33;;;;;;;1.75;1.75;;;;;;;35.63;29.07;99320.63;5107830;28;20198;-71
2022/08/04 11:55:04;;;;;;;1.48;1.48;;;;;;;35.83;31.32;99320.56;5110504;28;20252;-70
2022/08/04 11:57:31;;;;;;;7.93;1.75;;;;;;;35.87;29.49;99327.91;5112497;27;20207;-71
2022/08/04 12:00:03;;;;;;;1.90;1.90;;;;;;;36.01;27.74;99323.34;5111759;28;20194;-70
2022/08/04 12:03:01;;;;;;;1.90;1.80;;;;;;;36.05;31.08;99320.06;5112980;28;20202;-71
2022/08/04 12:05:32;;;;;;;2.00;1.80;;;;;;;36.16;28.44;99311.41;5111992;28;20238;-70
2022/08/04 12:08:11;;;;;;;1.70;1.70;;;;;;;36.18;29.30;99280.00;5113861;27;20221;-71
2022/08/04 12:10:47;;;;;;;1.85;1.83;;;;;;;36.57;31.40;99300.34;5114458;27;20670;-74
2022/08/04 12:13:24;;;;;;;2.10;2.00;;;;;;;36.62;28.00;99299.66;5112888;28;20209;-73
2022/08/04 12:16:02;;;;;;;1.90;1.80;;;;;;;36.62;28.10;99305.00;5114096;28;20209;-72
2022/08/04 12:18:38;;;;;;;1.90;1.80;;;;;;;36.60;26.88;99307.09;5114069;28;20286;-74
2022/08/04 12:21:11;;;;;;;1.50;1.50;;;;;;;36.54;27.94;99294.59;5111405;28;20206;-72
2022/08/04 12:23:40;;;;;;;1.60;1.60;;;;;;;36.45;29.06;99294.00;5114918;27;20199;-73
2022/08/04 12:26:14;;;;;;;1.73;1.63;;;;;;;36.71;28.56;99298.38;5113606;28;20233;-71
2022/08/04 12:28:43;;;;;;;1.92;1.83;;;;;;;36.79;28.43;99292.78;5105178;28;20222;-70
2022/08/04 12:31:19;;;;;;;2.00;1.90;;;;;;;36.56;28.44;99292.53;5112243;28;20578;-69
2022/08/04 12:33:53;;;;;;;1.98;1.95;;;;;;;35.93;28.56;99268.38;5111322;28;20671;-69
2022/08/04 12:36:33;;;;;;;2.05;1.77;;;;;;;35.72;28.39;99288.16;5112682;27;20194;-70
2022/08/04 12:39:06;;;;;;;2.17;1.80;;;;;;;35.75;29.29;99281.59;5109959;28;20301;-69